Time;durP1;ratioP1;P1;durP2;ratioP2;P2;SDS_P1;SDS_P2;PMS_P1;PMS_P2;Temp;Humidity;BMP_temperature;BMP_pressure;BME280_temperature;BME280_humidity;BME280_pressure;Samples;Min_cycle;Max_cycle;Signal;HPM_P1;HPM_P2
2023/05/28 00:01:35;;;;;;;11.83;10.97;;;16.60;99.90;;;;;;4894112;29;20494;-89
2023/05/28 00:04:04;;;;;;;12.40;11.50;;;16.50;99.90;;;;;;4891614;29;20457;-90
2023/05/28 00:06:32;;;;;;;12.27;11.37;;;16.40;99.90;;;;;;4890264;29;20470;-89
2023/05/28 00:09:01;;;;;;;11.90;11.10;;;16.40;99.90;;;;;;4893853;29;20494;-87
2023/05/28 00:11:29;;;;;;;11.87;11.10;;;16.30;99.90;;;;;;4888342;29;20493;-90
2023/05/28 00:13:57;;;;;;;12.17;10.97;;;16.30;99.90;;;;;;4891782;29;20482;-88
2023/05/28 00:16:26;;;;;;;11.70;11.00;;;16.30;99.90;;;;;;4890321;29;20457;-91
2023/05/28 00:18:55;;;;;;;11.43;10.53;;;16.30;99.90;;;;;;4891942;29;20508;-88
2023/05/28 00:21:26;;;;;;;11.10;10.23;;;16.20;99.90;;;;;;4894737;29;20491;-89
2023/05/28 00:23:54;;;;;;;12.17;10.93;;;16.20;99.90;;;;;;4907164;29;20464;-88
2023/05/28 00:26:22;;;;;;;11.90;10.93;;;16.20;99.90;;;;;;4893034;29;20475;-88
2023/05/28 00:28:50;;;;;;;12.60;11.40;;;16.20;99.90;;;;;;4891068;29;20556;-91
2023/05/28 00:31:19;;;;;;;11.30;10.70;;;16.30;99.90;;;;;;4892512;29;20584;-89
2023/05/28 00:33:47;;;;;;;12.00;11.00;;;16.20;99.90;;;;;;4892967;29;21112;-88
2023/05/28 00:36:17;;;;;;;12.33;11.30;;;16.20;99.90;;;;;;4890771;29;20512;-91
2023/05/28 00:38:45;;;;;;;11.60;10.80;;;16.10;99.90;;;;;;4891410;29;20482;-90
2023/05/28 00:41:14;;;;;;;11.83;11.23;;;16.10;99.90;;;;;;4892330;29;20493;-88
2023/05/28 00:43:42;;;;;;;12.17;11.07;;;16.00;99.90;;;;;;4890377;29;20465;-86
2023/05/28 00:46:11;;;;;;;11.90;11.10;;;15.90;99.90;;;;;;4890649;29;20463;-88
2023/05/28 00:48:39;;;;;;;12.70;11.80;;;15.90;99.90;;;;;;4891859;29;20981;-90
2023/05/28 00:51:07;;;;;;;12.03;11.40;;;15.90;99.90;;;;;;4892007;29;20489;-90
2023/05/28 00:53:37;;;;;;;11.13;10.53;;;16.00;99.90;;;;;;4887294;29;20528;-88
2023/05/28 00:56:06;;;;;;;11.83;11.00;;;15.90;99.90;;;;;;4893298;29;20466;-88
2023/05/28 00:58:35;;;;;;;11.10;10.40;;;15.90;99.90;;;;;;4889003;29;20506;-88
2023/05/28 01:01:04;;;;;;;12.00;11.20;;;15.90;99.90;;;;;;4889338;29;20493;-88
2023/05/28 01:03:32;;;;;;;12.10;11.30;;;15.80;99.90;;;;;;4890817;29;20458;-91
2023/05/28 01:06:01;;;;;;;13.00;11.83;;;15.80;99.90;;;;;;4890223;29;21465;-89
2023/05/28 01:08:29;;;;;;;12.97;11.80;;;15.70;99.90;;;;;;4892956;29;20460;-88
2023/05/28 01:11:00;;;;;;;12.37;11.33;;;15.70;99.90;;;;;;4891876;29;20952;-88
2023/05/28 01:13:28;;;;;;;12.43;11.67;;;15.60;99.90;;;;;;4891399;29;20608;-88
2023/05/28 01:15:58;;;;;;;11.93;11.33;;;15.60;99.90;;;;;;4890939;29;20557;-89
2023/05/28 01:18:27;;;;;;;11.53;10.83;;;15.60;99.90;;;;;;4889804;29;20469;-89
2023/05/28 01:20:56;;;;;;;13.07;12.03;;;15.60;99.90;;;;;;4888322;29;20492;-88
2023/05/28 01:23:28;;;;;;;12.13;11.33;;;15.60;99.90;;;;;;4888538;29;20457;-88
2023/05/28 01:25:59;;;;;;;12.53;11.63;;;15.50;99.90;;;;;;4892447;29;20845;-88
2023/05/28 01:28:27;;;;;;;12.60;11.80;;;15.50;99.90;;;;;;4890581;29;20479;-88
2023/05/28 01:30:55;;;;;;;12.27;11.37;;;15.50;99.90;;;;;;4892769;29;20504;-89
2023/05/28 01:33:24;;;;;;;13.60;11.70;;;15.50;99.90;;;;;;4892027;29;20490;-92
2023/05/28 01:35:53;;;;;;;11.20;10.60;;;15.50;99.90;;;;;;4892566;29;20512;-88
2023/05/28 01:38:23;;;;;;;12.67;11.80;;;15.50;99.90;;;;;;4889450;29;20544;-89
2023/05/28 01:40:54;;;;;;;12.47;11.60;;;15.50;99.90;;;;;;4893112;29;20490;-90
2023/05/28 01:43:25;;;;;;;13.00;12.00;;;15.40;99.90;;;;;;4892321;29;20457;-88
2023/05/28 01:45:54;;;;;;;12.10;11.30;;;15.30;99.90;;;;;;4886791;29;21273;-89
2023/05/28 01:48:23;;;;;;;11.70;11.03;;;15.20;99.90;;;;;;4902642;29;20474;-88
2023/05/28 01:50:53;;;;;;;13.80;12.80;;;15.10;99.90;;;;;;4885460;29;20494;-88
2023/05/28 01:53:21;;;;;;;13.90;12.53;;;15.20;99.90;;;;;;4888312;29;20507;-88
2023/05/28 01:55:50;;;;;;;12.30;11.43;;;15.30;99.90;;;;;;4904157;29;20465;-88
2023/05/28 01:58:19;;;;;;;12.63;11.63;;;15.20;99.90;;;;;;4888913;29;20457;-88
2023/05/28 02:00:56;;;;;;;11.97;11.37;;;15.20;99.90;;;;;;4890059;29;20514;-88
2023/05/28 02:03:24;;;;;;;12.30;11.40;;;15.10;99.90;;;;;;4889051;29;20990;-89
2023/05/28 02:05:52;;;;;;;11.60;10.90;;;15.10;99.90;;;;;;4891069;29;20476;-89
2023/05/28 02:08:21;;;;;;;12.00;11.20;;;15.10;99.90;;;;;;4891183;29;20469;-87
2023/05/28 02:10:49;;;;;;;13.20;11.97;;;15.10;99.90;;;;;;4891164;29;20552;-88
2023/05/28 02:13:17;;;;;;;12.43;11.53;;;15.00;99.90;;;;;;4891059;29;20495;-89
2023/05/28 02:15:46;;;;;;;13.17;12.30;;;15.10;99.90;;;;;;4889306;29;20461;-87
2023/05/28 02:18:15;;;;;;;13.00;12.10;;;15.10;99.90;;;;;;4884764;29;20479;-87
2023/05/28 02:20:43;;;;;;;12.80;11.80;;;15.00;99.90;;;;;;4886795;29;20483;-87
2023/05/28 02:23:12;;;;;;;13.00;12.00;;;15.00;99.90;;;;;;4888087;29;20466;-89
2023/05/28 02:25:40;;;;;;;12.90;12.03;;;15.00;99.90;;;;;;4892605;29;20508;-88
2023/05/28 02:28:08;;;;;;;12.70;11.90;;;14.90;99.90;;;;;;4890944;29;20477;-88
2023/05/28 02:30:36;;;;;;;12.37;11.57;;;14.80;99.90;;;;;;4887507;29;21015;-88
2023/05/28 02:33:05;;;;;;;11.73;11.03;;;14.80;99.90;;;;;;4889113;29;20544;-86
2023/05/28 02:35:34;;;;;;;11.97;11.20;;;14.80;99.90;;;;;;4904093;29;20489;-87
2023/05/28 02:38:02;;;;;;;12.37;11.63;;;14.80;99.90;;;;;;4886236;29;21039;-87
2023/05/28 02:40:31;;;;;;;13.10;12.13;;;14.80;99.90;;;;;;4888303;29;20497;-89
2023/05/28 02:42:59;;;;;;;12.90;12.10;;;14.80;99.90;;;;;;4886014;29;20459;-88
2023/05/28 02:45:27;;;;;;;13.40;12.20;;;14.80;99.90;;;;;;4888367;29;20568;-88
2023/05/28 02:47:55;;;;;;;12.63;11.73;;;14.80;99.90;;;;;;4889063;29;20515;-88
2023/05/28 02:50:24;;;;;;;12.37;11.67;;;14.90;99.90;;;;;;4888848;29;20481;-87
2023/05/28 02:52:54;;;;;;;13.57;12.57;;;14.80;99.90;;;;;;4890598;29;20467;-87
2023/05/28 02:55:22;;;;;;;11.97;11.27;;;14.80;99.90;;;;;;4891488;29;20474;-88
2023/05/28 02:57:52;;;;;;;12.23;11.43;;;14.70;99.90;;;;;;4889922;29;20514;-90
2023/05/28 03:00:21;;;;;;;12.37;11.57;;;14.60;99.90;;;;;;4891734;29;20487;-89
2023/05/28 03:02:49;;;;;;;11.73;10.83;;;14.50;99.90;;;;;;4888584;29;20934;-88
2023/05/28 03:05:18;;;;;;;13.60;12.60;;;14.50;99.90;;;;;;4884145;29;20468;-82
2023/05/28 03:07:46;;;;;;;13.20;12.30;;;14.20;99.90;;;;;;4884957;29;20270;-83
2023/05/28 03:10:16;;;;;;;12.80;11.90;;;14.30;99.90;;;;;;4882716;29;20488;-82
2023/05/28 03:12:44;;;;;;;12.67;11.80;;;14.40;99.90;;;;;;4899179;29;20486;-82
2023/05/28 03:15:12;;;;;;;12.10;11.40;;;14.40;99.90;;;;;;4882853;29;20500;-83
2023/05/28 03:17:40;;;;;;;13.63;12.50;;;14.40;99.90;;;;;;4882810;29;20925;-82
2023/05/28 03:20:10;;;;;;;11.80;11.10;;;14.40;99.90;;;;;;4880387;29;20464;-83
2023/05/28 03:22:39;;;;;;;12.60;11.77;;;14.40;99.90;;;;;;4883428;29;20501;-84
2023/05/28 03:25:08;;;;;;;12.17;11.47;;;14.40;99.90;;;;;;4887235;29;20459;-81
2023/05/28 03:27:38;;;;;;;12.17;11.43;;;14.30;99.90;;;;;;4883105;29;20471;-83
2023/05/28 03:30:09;;;;;;;12.27;11.57;;;14.30;99.90;;;;;;4880785;29;20474;-82
2023/05/28 03:32:38;;;;;;;12.97;12.10;;;14.30;99.90;;;;;;4881396;29;20472;-82
2023/05/28 03:35:07;;;;;;;11.90;11.13;;;14.30;99.90;;;;;;4888658;29;21000;-82
2023/05/28 03:37:35;;;;;;;12.50;11.80;;;14.30;99.90;;;;;;4884422;29;20681;-82
2023/05/28 03:40:05;;;;;;;12.50;11.70;;;14.30;99.90;;;;;;4886236;29;20448;-81
2023/05/28 03:42:33;;;;;;;13.03;12.13;;;14.20;99.90;;;;;;4885197;29;20462;-82
2023/05/28 03:45:02;;;;;;;12.90;11.87;;;14.20;99.90;;;;;;4890120;29;20989;-82
2023/05/28 03:47:32;;;;;;;12.30;11.67;;;14.20;99.90;;;;;;4886726;29;20452;-81
2023/05/28 03:50:01;;;;;;;13.73;12.73;;;14.10;99.90;;;;;;4886862;29;20560;-81
2023/05/28 03:52:29;;;;;;;12.83;12.03;;;14.10;99.90;;;;;;4889188;29;20979;-82
2023/05/28 03:54:57;;;;;;;13.00;12.00;;;14.20;99.90;;;;;;4887108;29;20461;-82
2023/05/28 03:57:25;;;;;;;13.00;12.30;;;13.90;99.90;;;;;;4884932;29;20207;-81
2023/05/28 03:59:55;;;;;;;11.83;11.13;;;14.10;99.90;;;;;;4887309;29;20462;-83
2023/05/28 04:02:25;;;;;;;13.40;12.40;;;14.20;99.90;;;;;;4881883;29;20536;-82
2023/05/28 04:04:53;;;;;;;12.90;11.90;;;13.90;99.90;;;;;;4879857;29;20204;-82
2023/05/28 04:07:22;;;;;;;13.67;12.53;;;14.10;99.90;;;;;;4882587;29;20558;-81
2023/05/28 04:09:51;;;;;;;13.20;12.30;;;14.20;99.90;;;;;;4883235;29;20455;-81
2023/05/28 04:12:20;;;;;;;13.87;12.90;;;14.20;99.90;;;;;;4887229;29;20510;-79
2023/05/28 04:14:48;;;;;;;12.40;11.70;;;14.30;99.90;;;;;;4882917;29;20871;-82
2023/05/28 04:17:17;;;;;;;13.13;12.33;;;14.20;99.90;;;;;;4885532;29;20526;-82
2023/05/28 04:19:46;;;;;;;12.10;11.30;;;14.20;99.90;;;;;;4886506;29;20944;-81
2023/05/28 04:22:15;;;;;;;13.30;12.30;;;14.20;99.90;;;;;;4884365;29;20922;-81
2023/05/28 04:24:43;;;;;;;12.90;11.90;;;14.20;99.90;;;;;;4883483;29;20454;-82
2023/05/28 04:27:11;;;;;;;12.73;11.63;;;14.20;99.90;;;;;;4887842;29;20551;-81
2023/05/28 04:29:39;;;;;;;12.30;11.50;;;14.30;99.90;;;;;;4879240;29;20484;-82
2023/05/28 04:32:09;;;;;;;12.70;11.90;;;14.30;99.90;;;;;;4910046;29;20516;-82
2023/05/28 04:34:40;;;;;;;12.17;11.37;;;14.30;99.90;;;;;;4910059;29;20462;-82
2023/05/28 04:37:10;;;;;;;11.73;10.87;;;14.40;99.90;;;;;;4907080;29;20556;-81
2023/05/28 04:39:38;;;;;;;11.68;10.98;;;14.40;99.90;;;;;;4904583;29;20567;-81
2023/05/28 04:42:09;;;;;;;11.70;10.90;;;14.30;99.90;;;;;;4901746;29;20591;-82
2023/05/28 04:44:37;;;;;;;11.57;10.83;;;14.40;99.90;;;;;;4897035;29;20463;-80
2023/05/28 04:47:05;;;;;;;12.87;11.93;;;14.40;99.90;;;;;;4898774;29;20456;-82
2023/05/28 04:49:34;;;;;;;12.00;11.40;;;14.40;99.90;;;;;;4902161;29;20450;-83
2023/05/28 04:52:02;;;;;;;12.47;11.60;;;14.40;99.90;;;;;;4884328;29;20487;-83
2023/05/28 04:54:31;;;;;;;12.30;11.60;;;14.50;99.90;;;;;;4916197;29;20463;-83
2023/05/28 04:56:59;;;;;;;13.00;12.10;;;14.60;99.90;;;;;;4904774;29;20475;-81
2023/05/28 04:59:27;;;;;;;11.83;11.13;;;14.60;99.90;;;;;;4908146;29;20463;-82
2023/05/28 05:01:55;;;;;;;12.70;11.60;;;14.70;99.90;;;;;;4908015;29;20470;-82
2023/05/28 05:04:23;;;;;;;12.27;11.47;;;14.70;99.90;;;;;;4908688;29;20465;-82
2023/05/28 05:06:52;;;;;;;11.87;11.03;;;14.70;99.90;;;;;;4910574;29;20543;-82
2023/05/28 05:09:20;;;;;;;12.53;11.63;;;14.80;99.90;;;;;;4909568;29;20480;-82
2023/05/28 05:11:50;;;;;;;13.07;12.17;;;14.80;99.90;;;;;;4909249;29;20570;-82
2023/05/28 05:14:18;;;;;;;12.30;11.63;;;14.90;99.90;;;;;;4909910;29;20463;-82
2023/05/28 05:16:48;;;;;;;13.20;12.10;;;14.90;99.90;;;;;;4909126;29;20546;-82
2023/05/28 05:19:16;;;;;;;12.43;11.67;;;14.80;99.90;;;;;;4910434;29;20539;-82
2023/05/28 05:21:45;;;;;;;13.03;12.17;;;14.90;99.90;;;;;;4908616;29;20476;-82
2023/05/28 05:24:13;;;;;;;13.43;12.60;;;14.90;99.90;;;;;;4909118;29;20455;-82
2023/05/28 05:26:41;;;;;;;13.63;12.63;;;14.90;99.90;;;;;;4907798;29;20474;-82
2023/05/28 05:29:10;;;;;;;13.60;12.60;;;14.90;99.90;;;;;;4908550;29;20487;-82
2023/05/28 05:31:38;;;;;;;13.83;12.93;;;15.00;99.90;;;;;;4901321;29;20499;-82
2023/05/28 05:34:06;;;;;;;13.07;12.00;;;15.00;99.90;;;;;;4908494;29;20995;-82
2023/05/28 05:36:35;;;;;;;14.87;13.90;;;15.00;99.90;;;;;;4908383;29;20574;-82
2023/05/28 05:39:03;;;;;;;13.67;12.70;;;15.00;99.90;;;;;;4909530;29;20555;-82
2023/05/28 05:41:31;;;;;;;13.53;12.70;;;15.00;99.90;;;;;;4908350;29;20488;-82
2023/05/28 05:43:59;;;;;;;13.43;12.63;;;15.10;99.90;;;;;;4909280;29;20466;-82
2023/05/28 05:46:29;;;;;;;13.37;12.57;;;15.20;99.90;;;;;;4908778;29;20461;-82
2023/05/28 05:48:57;;;;;;;13.90;12.80;;;15.30;99.90;;;;;;4909550;29;20548;-82
2023/05/28 05:51:25;;;;;;;13.10;12.30;;;15.30;99.90;;;;;;4909557;29;20529;-82
2023/05/28 05:53:53;;;;;;;13.13;12.43;;;15.40;99.90;;;;;;4907826;29;20473;-82
2023/05/28 05:56:22;;;;;;;13.13;12.53;;;15.40;99.90;;;;;;4909730;29;20915;-82
2023/05/28 05:58:50;;;;;;;14.30;13.30;;;15.50;99.90;;;;;;4907507;29;20971;-82
2023/05/28 06:01:18;;;;;;;13.60;12.53;;;15.40;99.90;;;;;;4908785;29;20486;-82
2023/05/28 06:03:47;;;;;;;14.40;13.33;;;15.60;99.90;;;;;;4908856;29;20602;-82
2023/05/28 06:06:15;;;;;;;13.80;12.70;;;15.70;99.90;;;;;;4908575;29;20452;-82
2023/05/28 06:08:43;;;;;;;13.87;12.67;;;15.60;99.90;;;;;;4907722;29;20472;-83
2023/05/28 06:11:11;;;;;;;13.60;12.63;;;15.70;99.90;;;;;;4900006;29;20484;-82
2023/05/28 06:13:40;;;;;;;13.20;12.20;;;15.80;99.90;;;;;;4908060;29;21164;-82
2023/05/28 06:16:08;;;;;;;13.43;12.50;;;15.80;99.90;;;;;;4909249;29;20487;-83
2023/05/28 06:18:36;;;;;;;12.80;12.20;;;15.90;99.90;;;;;;4906710;29;20553;-82
2023/05/28 06:21:07;;;;;;;14.40;13.43;;;16.00;99.90;;;;;;4908253;29;20588;-83
2023/05/28 06:23:35;;;;;;;14.50;13.30;;;16.10;99.90;;;;;;4908499;29;20478;-82
2023/05/28 06:26:04;;;;;;;13.20;12.40;;;16.20;99.90;;;;;;4908572;29;20471;-82
2023/05/28 06:28:32;;;;;;;13.40;12.50;;;16.20;99.90;;;;;;4908831;29;21010;-82
2023/05/28 06:31:01;;;;;;;14.00;12.90;;;16.40;99.90;;;;;;4907942;29;20480;-82
2023/05/28 06:33:29;;;;;;;14.57;13.43;;;16.40;99.90;;;;;;4907857;29;20843;-82
2023/05/28 06:35:57;;;;;;;13.90;13.00;;;16.30;99.90;;;;;;4907598;29;20539;-82
2023/05/28 06:38:26;;;;;;;14.40;13.00;;;16.50;99.90;;;;;;4907592;29;20567;-82
2023/05/28 06:40:54;;;;;;;13.50;12.80;;;16.50;99.90;;;;;;4909170;29;20491;-82
2023/05/28 06:43:23;;;;;;;13.93;12.80;;;16.70;99.90;;;;;;4907711;29;21276;-82
2023/05/28 06:45:51;;;;;;;14.20;13.00;;;16.80;99.90;;;;;;4908775;29;21003;-82
2023/05/28 06:48:19;;;;;;;13.90;12.90;;;17.00;99.90;;;;;;4908736;29;20488;-83
2023/05/28 06:50:47;;;;;;;13.20;12.50;;;17.00;99.90;;;;;;4907471;29;20469;-83
2023/05/28 06:53:15;;;;;;;13.83;12.93;;;17.00;99.90;;;;;;4909132;29;20477;-82
2023/05/28 06:55:45;;;;;;;14.37;13.67;;;17.10;99.90;;;;;;4906931;29;20477;-82
2023/05/28 06:58:13;;;;;;;13.50;12.50;;;17.10;99.90;;;;;;4907815;29;20829;-82
2023/05/28 07:00:41;;;;;;;13.30;12.40;;;17.20;99.90;;;;;;4906845;29;20470;-82
2023/05/28 07:03:09;;;;;;;13.60;12.60;;;17.30;99.90;;;;;;4908366;29;20468;-82
2023/05/28 07:05:37;;;;;;;13.90;12.83;;;17.40;99.90;;;;;;4908703;29;20457;-82
2023/05/28 07:08:06;;;;;;;13.37;12.40;;;17.40;99.90;;;;;;4907341;29;20564;-82
2023/05/28 07:10:35;;;;;;;13.67;12.77;;;17.40;99.90;;;;;;4907647;29;20588;-82
2023/05/28 07:13:04;;;;;;;12.70;11.80;;;17.50;99.90;;;;;;4908142;29;20556;-82
2023/05/28 07:15:32;;;;;;;12.50;11.70;;;17.50;99.90;;;;;;4907642;29;20461;-82
2023/05/28 07:18:01;;;;;;;13.10;12.30;;;17.60;99.90;;;;;;4900278;29;21175;-82
2023/05/28 07:20:29;;;;;;;12.60;11.67;;;17.70;99.90;;;;;;4907267;29;20496;-82
2023/05/28 07:22:57;;;;;;;12.20;11.53;;;17.70;99.90;;;;;;4907071;29;20469;-82
2023/05/28 07:25:26;;;;;;;12.70;11.90;;;17.70;99.90;;;;;;4903481;29;20472;-82
2023/05/28 07:27:54;;;;;;;13.10;12.10;;;17.80;99.90;;;;;;4908841;29;20461;-84
2023/05/28 07:30:23;;;;;;;14.60;13.10;;;17.90;99.90;;;;;;4906486;29;20489;-82
2023/05/28 07:32:51;;;;;;;13.07;12.20;;;17.90;99.90;;;;;;4907836;29;21035;-82
2023/05/28 07:35:19;;;;;;;12.97;12.20;;;18.00;99.90;;;;;;4907351;29;20469;-82
2023/05/28 07:37:47;;;;;;;13.00;12.30;;;18.10;99.90;;;;;;4907726;29;20516;-83
2023/05/28 07:40:16;;;;;;;13.63;12.63;;;18.10;99.90;;;;;;4906078;29;20458;-82
2023/05/28 07:42:44;;;;;;;12.90;12.13;;;18.20;99.90;;;;;;4906812;29;20468;-82
2023/05/28 07:45:15;;;;;;;13.57;12.63;;;18.30;99.90;;;;;;4907516;29;20454;-82
2023/05/28 07:47:44;;;;;;;13.17;12.23;;;18.30;99.90;;;;;;4911691;29;20548;-82
2023/05/28 07:50:13;;;;;;;13.20;12.10;;;18.30;99.90;;;;;;4911668;29;20540;-83
2023/05/28 07:52:41;;;;;;;13.77;12.87;;;18.40;99.90;;;;;;4910974;29;20553;-82
2023/05/28 07:55:10;;;;;;;13.30;12.20;;;18.40;99.90;;;;;;4910895;29;20835;-82
2023/05/28 07:57:38;;;;;;;13.10;12.00;;;18.50;99.90;;;;;;4910468;29;20481;-82
2023/05/28 08:00:12;;;;;;;12.50;11.80;;;18.50;99.90;;;;;;4910482;29;20466;-83
2023/05/28 08:02:41;;;;;;;14.23;13.23;;;18.60;99.90;;;;;;4909865;29;20464;-83
2023/05/28 08:05:11;;;;;;;12.83;12.20;;;18.60;99.90;;;;;;4925842;29;20497;-83
2023/05/28 08:07:39;;;;;;;13.20;12.30;;;18.60;99.90;;;;;;4909911;29;20544;-82
2023/05/28 08:10:08;;;;;;;12.77;12.00;;;18.70;99.90;;;;;;4924972;29;20442;-83
2023/05/28 08:12:36;;;;;;;14.27;13.07;;;18.70;99.90;;;;;;4908367;29;20454;-82
2023/05/28 08:15:06;;;;;;;14.60;13.70;;;18.80;99.90;;;;;;4911808;29;20544;-83
2023/05/28 08:17:34;;;;;;;15.30;14.50;;;18.80;99.90;;;;;;4908246;29;20481;-82
2023/05/28 08:20:03;;;;;;;13.50;12.87;;;18.90;99.90;;;;;;4909936;29;20554;-83
2023/05/28 08:22:33;;;;;;;14.73;13.70;;;18.90;99.90;;;;;;4910852;29;20473;-83
2023/05/28 08:25:01;;;;;;;15.10;14.00;;;19.00;99.90;;;;;;4911870;29;20695;-83
2023/05/28 08:27:29;;;;;;;14.63;13.80;;;19.10;99.90;;;;;;4909657;29;20873;-82
2023/05/28 08:29:57;;;;;;;15.73;14.73;;;19.10;99.90;;;;;;4908071;29;20469;-83
2023/05/28 08:32:25;;;;;;;14.57;13.77;;;19.20;99.90;;;;;;4908867;29;20483;-83
2023/05/28 08:34:53;;;;;;;15.17;14.20;;;19.20;99.90;;;;;;4910380;29;20465;-83
2023/05/28 08:37:21;;;;;;;14.23;13.43;;;19.40;99.90;;;;;;4911211;29;20489;-82
2023/05/28 08:39:51;;;;;;;15.03;14.23;;;19.40;99.90;;;;;;4910409;29;20458;-83
2023/05/28 08:42:19;;;;;;;14.80;14.00;;;19.50;99.90;;;;;;4910945;29;20477;-82
2023/05/28 08:44:47;;;;;;;15.43;14.30;;;19.50;99.90;;;;;;4911554;29;20568;-82
2023/05/28 08:47:16;;;;;;;14.57;13.87;;;19.60;99.90;;;;;;4910377;29;20529;-83
2023/05/28 08:49:52;;;;;;;16.10;15.00;;;19.60;99.90;;;;;;4910083;29;20462;-82
2023/05/28 08:52:21;;;;;;;15.87;14.53;;;19.70;99.90;;;;;;4910335;29;20469;-82
2023/05/28 08:54:51;;;;;;;15.03;14.03;;;19.70;99.90;;;;;;4911343;29;20942;-82
2023/05/28 08:57:20;;;;;;;14.77;13.80;;;19.80;99.90;;;;;;4909836;29;20481;-83
2023/05/28 08:59:48;;;;;;;13.93;13.10;;;19.80;99.90;;;;;;4909042;29;21018;-83
2023/05/28 09:02:16;;;;;;;14.40;13.40;;;19.90;99.90;;;;;;4910267;29;20477;-83
2023/05/28 09:04:46;;;;;;;13.80;13.00;;;19.90;99.90;;;;;;4910934;29;20464;-82
2023/05/28 09:07:14;;;;;;;14.13;13.43;;;20.00;99.90;;;;;;4904710;29;20580;-82
2023/05/28 09:09:43;;;;;;;14.00;13.10;;;20.00;99.90;;;;;;4909717;29;21223;-82
2023/05/28 09:12:13;;;;;;;14.63;13.80;;;20.00;99.90;;;;;;4908981;29;21124;-82
2023/05/28 09:14:42;;;;;;;14.40;13.70;;;20.10;99.90;;;;;;4910157;29;20454;-82
2023/05/28 09:17:13;;;;;;;13.27;12.30;;;20.20;99.90;;;;;;4908764;29;20462;-82
2023/05/28 09:19:51;;;;;;;13.80;12.90;;;20.20;99.90;;;;;;4909167;29;20686;-82
2023/05/28 09:22:19;;;;;;;13.23;12.60;;;20.20;99.90;;;;;;4910401;29;20469;-82
2023/05/28 09:24:49;;;;;;;14.87;13.80;;;20.20;99.90;;;;;;4908438;29;20473;-82
2023/05/28 09:27:19;;;;;;;14.53;13.23;;;20.30;99.90;;;;;;4909597;29;20452;-82
2023/05/28 09:29:48;;;;;;;13.63;12.83;;;20.30;99.90;;;;;;4906460;29;20461;-82
2023/05/28 09:32:19;;;;;;;13.97;13.27;;;20.40;99.90;;;;;;4908113;29;20499;-82
2023/05/28 09:34:50;;;;;;;14.07;13.03;;;20.40;99.90;;;;;;4908004;29;20928;-82
2023/05/28 09:37:18;;;;;;;14.37;13.27;;;20.50;99.90;;;;;;4909327;29;20458;-82
2023/05/28 09:39:46;;;;;;;14.10;13.20;;;20.50;99.90;;;;;;4908106;29;20560;-82
2023/05/28 09:42:15;;;;;;;13.97;13.30;;;20.50;99.90;;;;;;4908063;29;20847;-82
2023/05/28 09:44:45;;;;;;;14.90;13.77;;;20.50;99.90;;;;;;4908316;29;21024;-82
2023/05/28 09:47:15;;;;;;;13.50;12.90;;;20.60;99.90;;;;;;4907964;29;20551;-82
2023/05/28 09:49:45;;;;;;;14.97;13.87;;;20.70;99.90;;;;;;4903008;29;20471;-83
2023/05/28 09:52:19;;;;;;;14.50;13.80;;;20.80;99.90;;;;;;4906710;29;21093;-82
2023/05/28 09:54:51;;;;;;;14.17;13.27;;;20.90;99.90;;;;;;4908377;29;20793;-83
2023/05/28 09:57:24;;;;;;;14.77;13.77;;;20.90;99.90;;;;;;4907597;29;20549;-83
2023/05/28 09:59:55;;;;;;;13.43;12.53;;;20.80;99.90;;;;;;4900949;29;20470;-83
2023/05/28 10:02:33;;;;;;;14.47;13.47;;;20.90;99.90;;;;;;4907884;29;20932;-82
2023/05/28 10:05:08;;;;;;;13.20;12.13;;;20.90;99.90;;;;;;4906063;29;20481;-82
2023/05/28 10:07:38;;;;;;;12.83;11.90;;;20.90;99.90;;;;;;4906519;29;20492;-82
2023/05/28 10:10:09;;;;;;;12.10;11.60;;;20.80;99.90;;;;;;4902193;29;20456;-83
2023/05/28 10:12:38;;;;;;;13.67;12.87;;;20.80;99.90;;;;;;4907000;29;20466;-82
2023/05/28 10:15:11;;;;;;;13.07;12.30;;;20.90;99.90;;;;;;4907819;29;20458;-82
2023/05/28 10:17:40;;;;;;;12.13;11.43;;;21.00;99.90;;;;;;4907047;29;20469;-82
2023/05/28 10:20:10;;;;;;;12.87;12.07;;;21.00;99.90;;;;;;4908412;29;20445;-82
2023/05/28 10:22:40;;;;;;;13.37;12.37;;;21.00;99.90;;;;;;4908473;29;20981;-82
2023/05/28 10:25:09;;;;;;;13.10;12.40;;;21.00;99.90;;;;;;4908933;29;20469;-82
2023/05/28 10:27:44;;;;;;;14.33;13.63;;;21.00;99.90;;;;;;4906770;29;20484;-82
2023/05/28 10:30:30;;;;;;;14.00;13.30;;;21.10;99.90;;;;;;4906102;29;20461;-82
2023/05/28 10:32:59;;;;;;;14.83;13.90;;;21.10;99.90;;;;;;4907771;29;20477;-82
2023/05/28 10:35:27;;;;;;;15.03;13.93;;;21.20;99.90;;;;;;4909767;29;20530;-83
2023/05/28 10:38:13;;;;;;;15.17;14.37;;;21.30;99.90;;;;;;4907457;29;20464;-83
2023/05/28 10:40:41;;;;;;;14.10;13.30;;;21.30;99.90;;;;;;4907801;29;20507;-82
2023/05/28 10:43:45;;;;;;;13.10;12.30;;;21.40;99.90;;;;;;4909085;29;21022;-83
2023/05/28 10:46:17;;;;;;;13.63;12.77;;;21.30;99.90;;;;;;4907415;29;20537;-83
2023/05/28 10:49:10;;;;;;;13.10;12.33;;;21.40;99.90;;;;;;4921048;29;20463;-82
2023/05/28 10:52:03;;;;;;;13.47;12.67;;;21.30;99.90;;;;;;4905976;29;20560;-83
2023/05/28 10:54:42;;;;;;;13.07;12.20;;;21.30;99.90;;;;;;4902573;29;20469;-83
2023/05/28 10:57:12;;;;;;;13.97;13.10;;;21.40;99.90;;;;;;4903661;29;20484;-83
2023/05/28 10:59:45;;;;;;;14.73;14.00;;;21.50;99.90;;;;;;4907197;29;21956;-83
2023/05/28 11:02:19;;;;;;;14.87;14.07;;;21.50;99.90;;;;;;4906345;29;20484;-83
2023/05/28 11:04:51;;;;;;;13.20;12.63;;;21.60;99.90;;;;;;4907323;29;20665;-83
2023/05/28 11:07:21;;;;;;;14.10;13.20;;;21.60;99.90;;;;;;4906350;29;20472;-82
2023/05/28 11:09:50;;;;;;;13.40;12.63;;;21.60;99.90;;;;;;4906490;29;20445;-82
2023/05/28 11:12:20;;;;;;;17.97;16.67;;;21.60;99.90;;;;;;4907454;29;20528;-83
2023/05/28 11:14:49;;;;;;;14.77;13.90;;;21.60;99.90;;;;;;4906880;29;20898;-83
2023/05/28 11:17:18;;;;;;;13.73;13.03;;;21.60;99.90;;;;;;4907778;29;20917;-82
2023/05/28 11:19:48;;;;;;;14.33;13.37;;;21.60;99.90;;;;;;4907088;29;20536;-82
2023/05/28 11:22:17;;;;;;;15.47;14.37;;;21.70;99.90;;;;;;4914053;29;20481;-83
2023/05/28 11:24:59;;;;;;;14.77;13.70;;;21.80;99.90;;;;;;4912357;29;20986;-83
2023/05/28 11:27:28;;;;;;;14.67;13.60;;;21.80;99.90;;;;;;4912236;29;20523;-83
2023/05/28 11:29:57;;;;;;;14.07;13.20;;;21.90;99.90;;;;;;4913485;29;20473;-81
2023/05/28 11:32:28;;;;;;;14.23;13.23;;;21.80;99.90;;;;;;4912354;29;20568;-82
2023/05/28 11:34:56;;;;;;;14.20;13.23;;;21.90;99.90;;;;;;4914349;29;21069;-81
2023/05/28 11:37:26;;;;;;;15.30;14.20;;;22.00;99.90;;;;;;4912880;29;20488;-82
2023/05/28 11:39:56;;;;;;;14.43;13.63;;;22.00;99.90;;;;;;4912264;29;20576;-83
2023/05/28 11:42:25;;;;;;;14.93;13.73;;;22.00;99.90;;;;;;4913399;29;20466;-82
2023/05/28 11:44:53;;;;;;;13.50;12.70;;;22.00;99.90;;;;;;4914633;29;20488;-82
2023/05/28 11:47:22;;;;;;;13.87;13.13;;;22.00;99.90;;;;;;4912574;29;20469;-82
2023/05/28 11:49:51;;;;;;;14.37;13.57;;;22.10;99.90;;;;;;4913262;29;20454;-82
2023/05/28 11:52:22;;;;;;;14.77;13.87;;;22.10;99.90;;;;;;4914029;29;20879;-82
2023/05/28 11:54:55;;;;;;;17.27;15.93;;;22.10;99.90;;;;;;4914022;29;20465;-83
2023/05/28 11:57:25;;;;;;;15.50;14.60;;;22.20;99.90;;;;;;4910377;29;21536;-82
2023/05/28 12:00:00;;;;;;;14.00;13.07;;;22.20;99.90;;;;;;4912065;29;20832;-82
2023/05/28 12:02:28;;;;;;;13.63;12.90;;;22.10;99.90;;;;;;4914045;29;20963;-82
2023/05/28 12:04:59;;;;;;;14.13;13.33;;;22.10;99.90;;;;;;4913201;29;20986;-82
2023/05/28 12:07:32;;;;;;;14.37;13.47;;;22.10;99.90;;;;;;4910533;29;20457;-82
2023/05/28 12:10:07;;;;;;;13.47;12.50;;;22.20;99.90;;;;;;4928073;29;20983;-83
2023/05/28 12:12:40;;;;;;;12.70;11.70;;;22.20;99.90;;;;;;4913868;29;20456;-82
2023/05/28 12:15:09;;;;;;;13.43;12.43;;;22.20;99.90;;;;;;4914312;29;21288;-82
2023/05/28 12:17:38;;;;;;;14.27;13.50;;;22.30;99.90;;;;;;4913328;29;20465;-82
2023/05/28 12:20:29;;;;;;;13.37;12.67;;;22.40;99.90;;;;;;4914235;29;20567;-82
2023/05/28 12:23:06;;;;;;;13.87;13.07;;;22.40;99.90;;;;;;4914739;29;21116;-81
2023/05/28 12:25:48;;;;;;;19.90;18.60;;;22.40;99.90;;;;;;4913223;29;20820;-82
2023/05/28 12:28:17;;;;;;;16.00;15.00;;;22.40;99.90;;;;;;4913577;29;20468;-83
2023/05/28 12:30:50;;;;;;;14.67;13.73;;;22.50;99.90;;;;;;4911916;29;21157;-82
2023/05/28 12:33:18;;;;;;;14.40;13.60;;;22.50;99.90;;;;;;4911028;29;20469;-82
2023/05/28 12:35:48;;;;;;;14.40;13.23;;;22.50;99.90;;;;;;4911041;29;20468;-82
2023/05/28 12:38:16;;;;;;;14.10;13.33;;;22.50;99.90;;;;;;4911381;29;20458;-82
2023/05/28 12:40:45;;;;;;;13.90;13.20;;;22.50;99.90;;;;;;4909498;29;20561;-82